Time;durP1;ratioP1;P1;durP2;ratioP2;P2;SDS_P1;SDS_P2;PMS_P1;PMS_P2;Temp;Humidity;BMP_temperature;BMP_pressure;BME280_temperature;BME280_humidity;BME280_pressure;Samples;Min_cycle;Max_cycle;Signal;HPM_P1;HPM_P2
2023/07/28 00:00:28;;;;;;;;;;;18.40;99.90;;;;;;4992206;28;19928;-43
2023/07/28 00:02:55;;;;;;;;;;;18.40;99.90;;;;;;4989994;28;20390;-43
2023/07/28 00:05:23;;;;;;;;;;;18.40;99.90;;;;;;4975175;28;20373;-43
2023/07/28 00:07:50;;;;;;;;;;;18.40;99.90;;;;;;4991449;28;19929;-43
2023/07/28 00:10:17;;;;;;;;;;;18.40;99.90;;;;;;4973423;28;20397;-43
2023/07/28 00:12:43;;;;;;;;;;;18.40;99.90;;;;;;4990706;28;19969;-43
2023/07/28 00:15:10;;;;;;;;;;;18.40;99.90;;;;;;4989944;28;20385;-42
2023/07/28 00:17:37;;;;;;;;;;;18.40;99.90;;;;;;4991869;28;19980;-43
2023/07/28 00:20:04;;;;;;;;;;;18.40;99.90;;;;;;4977774;28;19921;-42
2023/07/28 00:22:32;;;;;;;;;;;18.40;99.90;;;;;;4977801;28;19925;-43
2023/07/28 00:24:59;;;;;;;;;;;18.40;99.90;;;;;;4979185;28;20289;-43
2023/07/28 00:27:25;;;;;;;;;;;18.40;99.90;;;;;;4995088;28;19921;-43
2023/07/28 00:29:52;;;;;;;;;;;18.40;99.90;;;;;;4994822;28;19922;-42
2023/07/28 00:32:19;;;;;;;;;;;18.40;99.90;;;;;;4994523;28;20012;-43
2023/07/28 00:34:46;;;;;;;;;;;18.40;99.90;;;;;;4995580;28;19976;-44
2023/07/28 00:37:12;;;;;;;;;;;18.40;99.90;;;;;;4978891;28;19929;-42
2023/07/28 00:39:40;;;;;;;;;;;18.40;99.90;;;;;;4961558;28;19969;-43
2023/07/28 00:42:09;;;;;;;;;;;18.40;99.90;;;;;;4988475;28;19929;-43
2023/07/28 00:44:36;;;;;;;;;;;18.40;99.90;;;;;;4994577;28;19944;-43
2023/07/28 00:47:02;;;;;;;;;;;18.40;99.90;;;;;;4977522;28;19925;-43
2023/07/28 00:49:29;;;;;;;;;;;18.30;99.90;;;;;;4996034;28;19922;-43
2023/07/28 00:51:56;;;;;;;;;;;18.40;99.90;;;;;;4994989;28;19921;-43
2023/07/28 00:54:22;;;;;;;;;;;18.40;99.90;;;;;;4977545;28;19929;-42
2023/07/28 00:56:50;;;;;;;;;;;18.40;99.90;;;;;;4977789;28;19984;-43
2023/07/28 00:59:17;;;;;;;;;;;18.40;99.90;;;;;;4993968;28;20416;-43
2023/07/28 01:01:44;;;;;;;;;;;18.40;99.90;;;;;;4978190;28;19972;-43
2023/07/28 01:04:10;;;;;;;;;;;18.40;99.90;;;;;;4994687;28;19929;-44
2023/07/28 01:06:38;;;;;;;;;;;18.40;99.90;;;;;;4977107;28;19972;-43
2023/07/28 01:09:05;;;;;;;;;;;18.40;99.90;;;;;;4977190;28;19988;-43
2023/07/28 01:11:31;;;;;;;;;;;18.30;99.90;;;;;;4994434;28;19925;-43
2023/07/28 01:13:59;;;;;;;;;;;18.30;99.90;;;;;;4995341;28;19969;-41
2023/07/28 01:16:26;;;;;;;;;;;18.30;99.90;;;;;;4976416;28;19921;-43
2023/07/28 01:18:53;;;;;;;;;;;18.30;99.90;;;;;;4994719;28;19922;-43
2023/07/28 01:21:21;;;;;;;;;;;18.30;99.90;;;;;;4977800;28;20293;-43
2023/07/28 01:23:50;;;;;;;;;;;18.30;99.90;;;;;;4993908;28;19929;-43
2023/07/28 01:26:16;;;;;;;;;;;18.40;99.90;;;;;;4995399;28;19922;-42
2023/07/28 01:28:44;;;;;;;;;;;18.30;99.90;;;;;;4977661;28;19929;-43
2023/07/28 01:31:11;;;;;;;;;;;18.30;99.90;;;;;;4993577;28;19930;-43
2023/07/28 01:33:38;;;;;;;;;;;18.30;99.90;;;;;;4994622;28;19929;-43
2023/07/28 01:36:05;;;;;;;;;;;18.40;99.90;;;;;;4993896;28;19922;-43
2023/07/28 01:38:31;;;;;;;;;;;18.30;99.90;;;;;;4994914;28;19926;-43
2023/07/28 01:40:58;;;;;;;;;;;18.40;99.90;;;;;;4994965;28;19922;-43
2023/07/28 01:43:25;;;;;;;;;;;18.40;99.90;;;;;;4994880;28;19972;-43
2023/07/28 01:45:53;;;;;;;;;;;18.30;99.90;;;;;;4976207;28;19925;-43
2023/07/28 01:48:20;;;;;;;;;;;18.30;99.90;;;;;;4993354;28;20358;-43
2023/07/28 01:50:46;;;;;;;;;;;18.30;99.90;;;;;;4993638;28;19976;-42
2023/07/28 01:53:13;;;;;;;;;;;18.40;99.90;;;;;;4992994;28;20366;-43
2023/07/28 01:55:40;;;;;;;;;;;18.40;99.90;;;;;;4976778;28;19921;-43
2023/07/28 01:58:06;;;;;;;;;;;18.40;99.90;;;;;;4994365;28;19922;-43
2023/07/28 02:00:33;;;;;;;;;;;18.40;99.90;;;;;;4976639;28;19998;-43
2023/07/28 02:03:03;;;;;;;;;;;18.40;99.90;;;;;;4993351;28;19921;-42
2023/07/28 02:05:29;;;;;;;;;;;18.40;99.90;;;;;;4993595;28;19922;-42
2023/07/28 02:07:56;;;;;;;;;;;18.30;99.90;;;;;;4993040;28;20333;-43
2023/07/28 02:10:23;;;;;;;;;;;18.40;99.90;;;;;;4976937;28;19965;-42
2023/07/28 02:12:49;;;;;;;;;;;18.40;99.90;;;;;;4993120;28;19922;-43
2023/07/28 02:15:16;;;;;;;;;;;18.40;99.90;;;;;;4975622;28;19922;-43
2023/07/28 02:17:43;;;;;;;;;;;18.40;99.90;;;;;;4993084;28;19930;-43
2023/07/28 02:20:12;;;;;;;;;;;18.40;99.90;;;;;;4974901;28;20374;-42
2023/07/28 02:22:39;;;;;;;;;;;18.40;99.90;;;;;;4975193;28;19921;-43
2023/07/28 02:25:06;;;;;;;;;;;18.40;99.90;;;;;;4973881;28;19972;-43
2023/07/28 02:27:33;;;;;;;;;;;18.40;99.90;;;;;;4992430;28;19922;-43
2023/07/28 02:30:00;;;;;;;;;;;18.40;99.90;;;;;;4992998;28;20366;-43
2023/07/28 02:32:27;;;;;;;;;;;18.40;99.90;;;;;;4991407;28;19926;-43
2023/07/28 02:34:53;;;;;;;;;;;18.40;99.90;;;;;;4993960;28;19926;-43
2023/07/28 02:37:21;;;;;;;;;;;18.40;99.90;;;;;;4992672;28;19929;-43
2023/07/28 02:39:48;;;;;;;;;;;18.40;99.90;;;;;;4991807;28;19977;-43
2023/07/28 02:42:15;;;;;;;;;;;18.40;99.90;;;;;;4975326;28;19921;-43
2023/07/28 02:44:41;;;;;;;;;;;18.40;99.90;;;;;;4993540;28;19925;-43
2023/07/28 02:47:08;;;;;;;;;;;18.40;99.90;;;;;;4975816;28;20255;-43
2023/07/28 02:49:35;;;;;;;;;;;18.40;99.90;;;;;;4975434;28;20429;-42
2023/07/28 02:52:02;;;;;;;;;;;18.40;99.90;;;;;;4993640;28;19984;-43
2023/07/28 02:54:30;;;;;;;;;;;18.40;99.90;;;;;;4992048;28;20417;-43
2023/07/28 02:56:57;;;;;;;;;;;18.40;99.90;;;;;;4992709;28;19921;-42
2023/07/28 02:59:24;;;;;;;;;;;18.40;99.90;;;;;;4992112;28;19922;-43
2023/07/28 03:01:51;;;;;;;;;;;18.40;99.90;;;;;;4993746;28;20378;-43
2023/07/28 03:04:18;;;;;;;;;;;18.40;99.90;;;;;;4992324;28;19922;-43
2023/07/28 03:06:45;;;;;;;;;;;18.40;99.90;;;;;;4992547;28;19922;-42
2023/07/28 03:09:12;;;;;;;;;;;18.40;99.90;;;;;;4975355;28;20433;-43
2023/07/28 03:11:40;;;;;;;;;;;18.40;99.90;;;;;;4991831;28;19973;-43
2023/07/28 03:14:06;;;;;;;;;;;18.30;99.90;;;;;;4993280;28;19945;-43
2023/07/28 03:16:33;;;;;;;;;;;18.40;99.90;;;;;;4992152;28;19933;-43
2023/07/28 03:19:00;;;;;;;;;;;18.40;99.90;;;;;;4990527;28;19984;-43
2023/07/28 03:21:26;;;;;;;;;;;18.40;99.90;;;;;;4975015;28;19925;-43
2023/07/28 03:23:53;;;;;;;;;;;18.40;99.90;;;;;;4974938;28;20000;-43
2023/07/28 03:26:19;;;;;;;;;;;18.40;99.90;;;;;;4975979;28;19972;-43
2023/07/28 03:28:47;;;;;;;;;;;18.40;99.90;;;;;;4974911;28;20016;-43
2023/07/28 03:31:14;;;;;;;;;;;18.40;99.90;;;;;;4991775;28;20443;-43
2023/07/28 03:33:41;;;;;;;;;;;18.40;99.90;;;;;;4991729;28;19934;-43
2023/07/28 03:36:08;;;;;;;;;;;18.40;99.90;;;;;;4974808;28;19922;-43
2023/07/28 03:38:34;;;;;;;;;;;18.40;99.90;;;;;;4993021;28;20003;-42
2023/07/28 03:41:01;;;;;;;;;;;18.40;99.90;;;;;;4991708;28;19922;-43
2023/07/28 03:43:28;;;;;;;;;;;18.40;99.90;;;;;;4992218;28;19922;-43
2023/07/28 03:45:56;;;;;;;;;;;18.40;99.90;;;;;;4991693;28;19921;-43
2023/07/28 03:48:22;;;;;;;;;;;18.40;99.90;;;;;;4991603;28;20306;-43
2023/07/28 03:50:49;;;;;;;;;;;18.40;99.90;;;;;;4993786;28;19977;-42
2023/07/28 03:53:16;;;;;;;;;;;18.40;99.90;;;;;;4995893;28;19929;-43
2023/07/28 03:55:42;;;;;;;;;;;18.40;99.90;;;;;;4995683;28;19926;-44
2023/07/28 03:58:09;;;;;;;;;;;18.40;99.90;;;;;;4995410;28;19976;-43
2023/07/28 04:00:36;;;;;;;;;;;18.40;99.90;;;;;;4995972;28;20345;-43
2023/07/28 04:03:04;;;;;;;;;;;18.40;99.90;;;;;;4978419;28;19925;-43
2023/07/28 04:05:31;;;;;;;;;;;18.40;99.90;;;;;;4977198;28;20366;-43
2023/07/28 04:07:57;;;;;;;;;;;18.40;99.90;;;;;;4974794;28;19922;-43
2023/07/28 04:10:24;;;;;;;;;;;18.40;99.90;;;;;;4995050;28;19976;-43
2023/07/28 04:12:50;;;;;;;;;;;18.40;99.90;;;;;;4977881;28;19973;-43
2023/07/28 04:15:17;;;;;;;;;;;18.40;99.90;;;;;;4995797;28;19976;-42
2023/07/28 04:17:44;;;;;;;;;;;18.40;99.90;;;;;;4979271;28;19991;-43
2023/07/28 04:20:12;;;;;;;;;;;18.40;99.90;;;;;;4978344;28;20033;-43
2023/07/28 04:22:39;;;;;;;;;;;18.40;99.90;;;;;;4978507;28;20431;-43
2023/07/28 04:25:06;;;;;;;;;;;18.40;99.90;;;;;;4996024;28;19976;-42
2023/07/28 04:27:33;;;;;;;;;;;18.40;99.90;;;;;;4996244;28;19981;-42
2023/07/28 04:30:00;;;;;;;;;;;18.40;99.90;;;;;;4995230;28;19996;-43
2023/07/28 04:32:27;;;;;;;;;;;18.50;99.90;;;;;;4978742;28;20374;-43
2023/07/28 04:34:54;;;;;;;;;;;18.50;99.90;;;;;;4996209;28;19925;-43
2023/07/28 04:37:22;;;;;;;;;;;18.50;99.90;;;;;;4995482;28;19972;-43
2023/07/28 04:39:50;;;;;;;;;;;18.50;99.90;;;;;;4996125;28;20242;-43
2023/07/28 04:42:16;;;;;;;;;;;18.50;99.90;;;;;;4995904;28;19926;-43
2023/07/28 04:44:44;;;;;;;;;;;18.40;99.90;;;;;;4995968;28;19929;-43
2023/07/28 04:47:11;;;;;;;;;;;18.50;99.90;;;;;;4995290;28;20294;-43
2023/07/28 04:49:37;;;;;;;;;;;18.40;99.90;;;;;;4994771;28;20340;-43
2023/07/28 04:52:04;;;;;;;;;;;18.50;99.90;;;;;;4978590;28;20005;-43
2023/07/28 04:54:32;;;;;;;;;;;18.50;99.90;;;;;;4978445;28;19926;-43
2023/07/28 04:56:59;;;;;;;;;;;18.50;99.90;;;;;;4996162;28;19971;-43
2023/07/28 04:59:25;;;;;;;;;;;18.50;99.90;;;;;;4995403;28;19922;-42
2023/07/28 05:01:52;;;;;;;;;;;18.50;99.90;;;;;;4994232;28;19926;-42
2023/07/28 05:04:19;;;;;;;;;;;18.50;99.90;;;;;;4994589;28;19977;-43
2023/07/28 05:06:46;;;;;;;;;;;18.40;99.90;;;;;;4995723;28;19922;-43
2023/07/28 05:09:13;;;;;;;;;;;18.50;99.90;;;;;;4978138;28;19949;-43
2023/07/28 05:11:41;;;;;;;;;;;18.50;99.90;;;;;;4993023;28;19922;-42
2023/07/28 05:14:08;;;;;;;;;;;18.50;99.90;;;;;;4994063;28;19965;-42
2023/07/28 05:16:35;;;;;;;;;;;18.50;99.90;;;;;;4995494;28;19972;-43
2023/07/28 05:19:01;;;;;;;;;;;18.50;99.90;;;;;;4995433;28;19921;-43
2023/07/28 05:21:28;;;;;;;;;;;18.50;99.90;;;;;;4977894;28;19957;-43
2023/07/28 05:23:55;;;;;;;;;;;18.50;99.90;;;;;;4977554;28;20370;-43
2023/07/28 05:26:22;;;;;;;;;;;18.60;99.90;;;;;;4977282;28;19922;-42
2023/07/28 05:28:50;;;;;;;;;;;18.50;99.90;;;;;;4975758;28;19925;-43
2023/07/28 05:31:16;;;;;;;;;;;18.50;99.90;;;;;;4975586;28;20382;-43
2023/07/28 05:33:43;;;;;;;;;;;18.50;99.90;;;;;;4975846;28;19925;-43
2023/07/28 05:36:10;;;;;;;;;;;18.50;99.90;;;;;;4986046;28;19926;-43
2023/07/28 05:38:37;;;;;;;;;;;18.50;99.90;;;;;;4995029;28;19922;-43
2023/07/28 05:41:03;;;;;;;;;;;18.50;99.90;;;;;;4994933;28;19925;-43
2023/07/28 05:43:30;;;;;;;;;;;18.50;99.90;;;;;;4977127;28;19930;-43
2023/07/28 05:45:59;;;;;;;;;;;18.50;99.90;;;;;;4977436;28;20386;-43
2023/07/28 05:48:25;;;;;;;;;;;18.60;99.90;;;;;;4993921;28;19945;-43
2023/07/28 05:50:53;;;;;;;;;;;18.60;99.90;;;;;;4993580;28;19972;-43
2023/07/28 05:53:20;;;;;;;;;;;18.60;99.90;;;;;;4977322;28;19921;-43
2023/07/28 05:55:47;;;;;;;;;;;18.60;99.90;;;;;;4994591;28;20389;-44
2023/07/28 05:58:14;;;;;;;;;;;18.60;99.90;;;;;;4976390;28;19925;-43
2023/07/28 06:00:41;;;;;;;;;;;18.60;99.90;;;;;;4993536;28;20341;-43
2023/07/28 06:03:10;;;;;;;;;;;18.70;99.90;;;;;;4976350;28;19922;-44
2023/07/28 06:05:36;;;;;;;;;;;18.70;99.90;;;;;;4993922;28;19921;-44
2023/07/28 06:08:03;;;;;;;;;;;18.80;99.90;;;;;;4992995;28;20394;-43
2023/07/28 06:10:30;;;;;;;;;;;18.80;99.90;;;;;;4994304;28;19928;-44
2023/07/28 06:12:57;;;;;;;;;;;18.80;99.90;;;;;;4976226;28;20366;-43
2023/07/28 06:15:23;;;;;;;;;;;18.90;99.90;;;;;;4993206;28;19932;-43
2023/07/28 06:17:50;;;;;;;;;;;18.90;99.90;;;;;;4993020;28;19921;-43
2023/07/28 06:20:18;;;;;;;;;;;19.00;99.90;;;;;;4960238;28;19980;-44
2023/07/28 06:22:45;;;;;;;;;;;19.00;99.90;;;;;;4976829;28;20366;-43
2023/07/28 06:25:11;;;;;;;;;;;19.10;99.90;;;;;;4992645;28;19925;-43
2023/07/28 06:27:39;;;;;;;;;;;19.10;99.90;;;;;;4975896;28;20300;-44
2023/07/28 06:30:06;;;;;;;;;;;19.10;99.90;;;;;;4992952;28;20579;-43
2023/07/28 06:32:33;;;;;;;;;;;19.20;99.90;;;;;;4993995;28;19926;-44
2023/07/28 06:35:00;;;;;;;;;;;19.20;99.90;;;;;;4976963;28;20277;-43
2023/07/28 06:37:28;;;;;;;;;;;19.20;99.90;;;;;;4976107;28;19926;-43
2023/07/28 06:39:55;;;;;;;;;;;19.20;99.90;;;;;;4993756;28;19921;-44
2023/07/28 06:42:23;;;;;;;;;;;19.20;99.90;;;;;;4993775;28;20020;-43
2023/07/28 06:44:50;;;;;;;;;;;19.20;99.90;;;;;;4993087;28;20033;-44
2023/07/28 06:47:17;;;;;;;;;;;19.20;99.90;;;;;;4993974;28;20289;-43
2023/07/28 06:49:44;;;;;;;;;;;19.20;99.90;;;;;;4976538;28;19926;-43
2023/07/28 06:52:11;;;;;;;;;;;19.20;99.90;;;;;;4992824;28;19921;-43
2023/07/28 06:54:39;;;;;;;;;;;19.30;99.90;;;;;;4993969;28;19944;-44
2023/07/28 06:57:06;;;;;;;;;;;19.30;99.90;;;;;;4976445;28;19922;-44
2023/07/28 06:59:33;;;;;;;;;;;19.30;99.90;;;;;;4993645;28;19929;-44
2023/07/28 07:01:59;;;;;;;;;;;19.40;99.90;;;;;;4992918;28;20382;-44
2023/07/28 07:04:26;;;;;;;;;;;19.40;99.90;;;;;;4993276;28;19954;-44
2023/07/28 07:06:53;;;;;;;;;;;19.50;99.90;;;;;;4973837;28;19922;-44
2023/07/28 07:09:19;;;;;;;;;;;19.70;99.90;;;;;;4993369;28;20301;-44
2023/07/28 07:11:48;;;;;;;;;;;19.80;99.90;;;;;;4993457;28;19921;-43
2023/07/28 07:14:15;;;;;;;;;;;20.00;99.90;;;;;;4993293;28;19996;-44
2023/07/28 07:16:42;;;;;;;;;;;20.10;99.90;;;;;;4992516;28;19971;-43
2023/07/28 07:19:08;;;;;;;;;;;20.20;99.90;;;;;;4993236;28;19929;-44
2023/07/28 07:21:35;;;;;;;;;;;20.30;99.90;;;;;;4993402;28;19965;-44
2023/07/28 07:24:03;;;;;;;;;;;20.30;99.90;;;;;;4975933;28;19921;-44
2023/07/28 07:26:31;;;;;;;;;;;20.30;99.90;;;;;;4991179;28;20393;-44
2023/07/28 07:28:59;;;;;;;;;;;20.30;99.90;;;;;;4976084;28;19921;-44
2023/07/28 07:31:25;;;;;;;;;;;20.30;99.90;;;;;;4992631;28;19944;-43
2023/07/28 07:33:52;;;;;;;;;;;20.30;99.90;;;;;;4973848;28;20267;-44
2023/07/28 07:36:19;;;;;;;;;;;20.30;99.90;;;;;;4973640;28;19922;-44
2023/07/28 07:38:46;;;;;;;;;;;20.40;99.90;;;;;;4981402;28;20234;-44
2023/07/28 07:41:15;;;;;;;;;;;20.40;99.90;;;;;;4975854;28;19968;-43
2023/07/28 07:43:42;;;;;;;;;;;20.40;99.90;;;;;;4976096;28;19929;-43
2023/07/28 07:46:10;;;;;;;;;;;20.40;99.90;;;;;;4975445;28;20007;-44
2023/07/28 07:48:37;;;;;;;;;;;20.40;99.90;;;;;;4976812;28;19921;-44
2023/07/28 07:51:07;;;;;;;;;;;20.40;99.90;;;;;;4991545;28;19922;-43
2023/07/28 07:53:34;;;;;;;;;;;20.50;99.90;;;;;;4993024;28;19921;-43
2023/07/28 07:56:00;;;;;;;;;;;20.50;99.90;;;;;;4974617;28;19921;-43
2023/07/28 07:58:27;;;;;;;;;;;20.50;99.90;;;;;;4975782;28;20376;-44
2023/07/28 08:00:54;;;;;;;;;;;20.60;99.90;;;;;;4993030;28;19922;-43
2023/07/28 08:03:22;;;;;;;;;;;20.60;99.90;;;;;;4974632;28;20369;-43
2023/07/28 08:05:49;;;;;;;;;;;20.60;99.90;;;;;;4991802;28;19928;-43
2023/07/28 08:08:17;;;;;;;;;;;20.60;99.90;;;;;;4974505;28;20000;-44
2023/07/28 08:10:43;;;;;;;;;;;20.60;99.90;;;;;;4973515;28;19929;-43
2023/07/28 08:13:10;;;;;;;;;;;20.70;99.90;;;;;;4988549;28;19955;-43
2023/07/28 08:15:37;;;;;;;;;;;20.80;99.90;;;;;;4973048;28;20016;-44
2023/07/28 08:18:03;;;;;;;;;;;20.90;99.90;;;;;;4991432;28;19922;-43
2023/07/28 08:20:31;;;;;;;;;;;21.00;99.90;;;;;;4991219;28;19976;-43
2023/07/28 08:22:58;;;;;;;;;;;21.00;99.90;;;;;;4974381;28;19983;-43
2023/07/28 08:25:25;;;;;;;;;;;21.00;99.90;;;;;;4991465;28;20029;-43
2023/07/28 08:27:51;;;;;;;;;;;21.00;99.90;;;;;;4975327;28;20374;-43
2023/07/28 08:30:18;;;;;;;;;;;21.10;99.90;;;;;;4991364;28;19921;-43
2023/07/28 08:32:45;;;;;;;;;;;21.20;99.90;;;;;;4974555;28;20008;-44
2023/07/28 08:35:11;;;;;;;;;;;21.30;99.90;;;;;;4991024;28;19925;-43
2023/07/28 08:37:39;;;;;;;;;;;21.40;99.90;;;;;;4992950;28;19976;-43
2023/07/28 08:40:07;;;;;;;;;;;21.40;99.90;;;;;;4994902;28;19976;-43
2023/07/28 08:42:36;;;;;;;;;;;21.40;99.90;;;;;;4977873;28;19928;-44
2023/07/28 08:45:04;;;;;;;;;;;21.50;99.90;;;;;;4995550;28;19976;-43
2023/07/28 08:47:35;;;;;;;;;;;21.60;99.90;;;;;;4978658;28;19944;-44
2023/07/28 08:50:01;;;;;;;;;;;21.70;99.90;;;;;;4977497;28;20343;-43
2023/07/28 08:52:28;;;;;;;;;;;21.80;99.90;;;;;;4977602;28;19922;-43
2023/07/28 08:54:56;;;;;;;;;;;22.00;99.90;;;;;;4978704;28;20011;-44
2023/07/28 08:57:23;;;;;;;;;;;22.20;99.90;;;;;;4994540;28;19969;-43
2023/07/28 08:59:50;;;;;;;;;;;22.30;99.90;;;;;;4978009;28;20457;-43
2023/07/28 09:02:17;;;;;;;;;;;22.40;99.90;;;;;;4995620;28;19929;-44
2023/07/28 09:04:43;;;;;;;;;;;22.40;99.90;;;;;;4993206;28;19961;-43
2023/07/28 09:07:10;;;;;;;;;;;22.40;99.90;;;;;;4995447;28;19973;-44
2023/07/28 09:09:37;;;;;;;;;;;22.40;99.90;;;;;;4994128;28;19977;-43
2023/07/28 09:12:06;;;;;;;;;;;22.40;99.90;;;;;;4977233;28;20401;-43
2023/07/28 09:14:33;;;;;;;;;;;22.40;99.90;;;;;;4977022;28;20301;-44
2023/07/28 09:17:06;;;;;;;;;;;22.50;99.90;;;;;;4974010;28;19964;-43
2023/07/28 09:19:33;;;;;;;;;;;22.40;99.90;;;;;;4971725;28;20341;-44
2023/07/28 09:22:00;;;;;;;;;;;22.40;99.90;;;;;;4994247;28;19926;-43
2023/07/28 09:24:31;;;;;;;;;;;22.50;99.90;;;;;;4994164;28;19988;-43
2023/07/28 09:26:58;;;;;;;;;;;22.80;99.90;;;;;;4991950;28;19922;-44
2023/07/28 09:29:27;;;;;;;;;;;23.00;99.90;;;;;;4994196;28;19926;-43
2023/07/28 09:31:54;;;;;;;;;;;23.10;99.90;;;;;;4976594;28;19922;-43
2023/07/28 09:34:24;;;;;;;;;;;23.20;99.90;;;;;;4993959;28;19921;-43
2023/07/28 09:36:51;;;;;;;;;;;23.30;99.90;;;;;;4976686;28;19922;-43
2023/07/28 09:39:17;;;;;;;;;;;23.40;99.90;;;;;;4995050;28;19922;-43
2023/07/28 09:41:44;;;;;;;;;;;23.40;99.90;;;;;;4993985;28;19922;-42
2023/07/28 09:44:11;;;;;;;;;;;23.40;99.90;;;;;;4994188;28;19984;-43
2023/07/28 09:46:40;;;;;;;;;;;23.40;99.90;;;;;;4977313;28;19972;-43
2023/07/28 09:49:11;;;;;;;;;;;23.50;99.90;;;;;;4994410;28;20370;-42
2023/07/28 09:51:37;;;;;;;;;;;23.60;99.90;;;;;;4977543;28;19922;-43
2023/07/28 09:54:05;;;;;;;;;;;23.80;99.90;;;;;;4977002;28;20409;-43
2023/07/28 09:56:32;;;;;;;;;;;23.80;99.90;;;;;;4976587;28;19972;-43
2023/07/28 09:58:59;;;;;;;;;;;23.90;99.90;;;;;;4993765;28;20286;-43
2023/07/28 10:01:25;;;;;;;;;;;23.90;99.90;;;;;;4992990;28;19956;-43
2023/07/28 10:03:53;;;;;;;;;;;24.00;99.90;;;;;;4976992;28;19921;-44
2023/07/28 10:06:22;;;;;;;;;;;24.10;99.90;;;;;;4994015;28;19922;-43
2023/07/28 10:08:49;;;;;;;;;;;24.20;99.90;;;;;;4976266;28;19922;-43
2023/07/28 10:11:15;;;;;;;;;;;24.20;99.90;;;;;;4975938;28;19932;-42
2023/07/28 10:13:42;;;;;;;;;;;24.30;99.90;;;;;;4975988;28;19964;-43
2023/07/28 10:16:09;;;;;;;;;;;24.40;99.90;;;;;;4991975;28;19932;-43
2023/07/28 10:18:36;;;;;;;;;;;24.60;99.90;;;;;;4994201;28;20271;-41
2023/07/28 10:21:06;;;;;;;;;;;24.70;99.90;;;;;;4988886;28;19938;-43
2023/07/28 10:23:33;;;;;;;;;;;24.80;99.90;;;;;;4992168;28;19928;-43
2023/07/28 10:26:01;;;;;;;;;;;24.90;99.90;;;;;;4991969;28;20370;-43
2023/07/28 10:28:29;;;;;;;;;;;25.00;99.90;;;;;;4992938;28;19929;-44
2023/07/28 10:30:55;;;;;;;;;;;25.00;99.90;;;;;;4977046;28;19926;-43
2023/07/28 10:33:29;;;;;;;;;;;25.00;99.90;;;;;;4992695;28;19921;-42
2023/07/28 10:35:56;;;;;;;;;;;25.00;99.90;;;;;;4991484;28;20001;-43
2023/07/28 10:38:31;;;;;;;;;;;25.10;99.90;;;;;;4991010;28;20325;-43
2023/07/28 10:41:08;;;;;;;;;;;25.30;99.90;;;;;;4993065;28;19976;-43
2023/07/28 10:43:34;;;;;;;;;;;25.40;99.90;;;;;;4993688;28;19926;-43
2023/07/28 10:46:01;;;;;;;;;;;25.40;99.90;;;;;;4975583;28;19956;-43
2023/07/28 10:48:28;;;;;;;;;;;25.40;99.90;;;;;;4993382;28;20001;-43
2023/07/28 10:50:55;;;;;;;;;;;25.30;99.90;;;;;;4993654;28;19976;-43
2023/07/28 10:53:21;;;;;;;;;;;25.20;99.90;;;;;;4992258;28;20420;-42
2023/07/28 10:55:50;;;;;;;;;;;25.10;99.90;;;;;;4991860;28;19930;-43
2023/07/28 10:58:16;;;;;;;;;;;25.00;99.90;;;;;;4993510;28;19929;-43
2023/07/28 11:00:43;;;;;;;;;;;25.00;99.90;;;;;;4975877;28;19922;-43
2023/07/28 11:03:10;;;;;;;;;;;25.10;99.90;;;;;;4976344;28;19960;-42
2023/07/28 11:05:37;;;;;;;;;;;25.20;99.90;;;;;;4975790;28;19979;-43
2023/07/28 11:08:04;;;;;;;;;;;25.20;99.90;;;;;;4974082;28;19929;-43
2023/07/28 11:10:31;;;;;;;;;;;25.10;99.90;;;;;;4975122;28;20411;-42
2023/07/28 11:13:00;;;;;;;;;;;25.00;99.90;;;;;;4992185;28;19991;-43
2023/07/28 11:15:27;;;;;;;;;;;25.00;99.90;;;;;;4993429;28;19961;-43
2023/07/28 11:17:54;;;;;;;;;;;25.20;99.90;;;;;;4974645;28;19962;-43
2023/07/28 11:20:21;;;;;;;;;;;25.40;99.90;;;;;;4975022;28;20023;-43
2023/07/28 11:22:48;;;;;;;;;;;25.40;99.90;;;;;;4991972;28;19921;-43
2023/07/28 11:25:15;;;;;;;;;;;25.60;99.90;;;;;;4992436;28;19938;-43
2023/07/28 11:27:41;;;;;;;;;;;25.90;99.90;;;;;;4993239;28;19964;-43
2023/07/28 11:30:10;;;;;;;;;;;25.90;99.90;;;;;;4991374;28;19976;-43
2023/07/28 11:32:37;;;;;;;;;;;25.90;99.90;;;;;;4974917;28;20310;-43
2023/07/28 11:35:05;;;;;;;;;;;25.70;99.90;;;;;;4991273;28;19929;-44
2023/07/28 11:37:32;;;;;;;;;;;25.60;99.90;;;;;;4974773;28;19964;-43
2023/07/28 11:39:59;;;;;;;;;;;25.40;99.90;;;;;;4973457;28;19922;-42
2023/07/28 11:42:25;;;;;;;;;;;25.20;99.90;;;;;;4974240;28;19926;-43
2023/07/28 11:44:52;;;;;;;;;;;25.00;99.90;;;;;;4987951;28;19929;-43
2023/07/28 11:47:20;;;;;;;;;;;24.90;99.90;;;;;;4991797;28;19993;-43
2023/07/28 11:49:47;;;;;;;;;;;24.90;99.90;;;;;;4991829;28;19926;-42
2023/07/28 11:52:15;;;;;;;;;;;25.00;99.90;;;;;;4975980;28;19922;-43
2023/07/28 11:54:41;;;;;;;;;;;25.30;99.90;;;;;;4975029;28;20027;-43
2023/07/28 11:57:09;;;;;;;;;;;25.60;99.90;;;;;;4991610;28;20429;-43
2023/07/28 11:59:35;;;;;;;;;;;25.80;99.90;;;;;;4991743;28;19964;-43
2023/07/28 12:02:02;;;;;;;;;;;26.00;99.90;;;;;;4974332;28;20397;-43
2023/07/28 12:04:31;;;;;;;;;;;26.10;99.90;;;;;;4992363;28;20287;-42
2023/07/28 12:07:03;;;;;;;;;;;26.10;99.90;;;;;;4992780;28;19925;-43
2023/07/28 12:09:30;;;;;;;;;;;26.10;99.90;;;;;;4991439;28;20307;-42
2023/07/28 12:11:58;;;;;;;;;;;26.10;99.90;;;;;;4992633;28;19921;-43
2023/07/28 12:14:31;;;;;;;;;;;26.20;99.90;;;;;;4978649;28;20378;-43
2023/07/28 12:16:58;;;;;;;;;;;26.40;99.90;;;;;;4995739;28;19926;-42
2023/07/28 12:19:24;;;;;;;;;;;26.50;99.90;;;;;;4996485;28;20032;-43
2023/07/28 12:21:52;;;;;;;;;;;26.70;99.90;;;;;;4993770;28;20358;-43
2023/07/28 12:24:19;;;;;;;;;;;26.80;99.90;;;;;;4992052;28;19976;-43
2023/07/28 12:26:47;;;;;;;;;;;26.80;99.90;;;;;;4979206;28;19921;-43
2023/07/28 12:29:14;;;;;;;;;;;26.80;99.90;;;;;;4994778;28;19968;-43
2023/07/28 12:31:41;;;;;;;;;;;26.90;99.90;;;;;;4995138;28;19929;-42
2023/07/28 12:34:07;;;;;;;;;;;27.00;99.90;;;;;;4994972;28;20348;-43
2023/07/28 12:36:34;;;;;;;;;;;26.90;99.90;;;;;;4994794;28;19952;-43
2023/07/28 12:39:03;;;;;;;;;;;26.90;99.90;;;;;;4978222;28;19921;-44
2023/07/28 12:41:29;;;;;;;;;;;26.80;99.90;;;;;;4978022;28;19996;-42
2023/07/28 12:43:56;;;;;;;;;;;26.80;99.90;;;;;;4964686;28;19930;-43
2023/07/28 12:46:23;;;;;;;;;;;26.90;99.90;;;;;;4985059;28;19929;-44
2023/07/28 12:48:50;;;;;;;;;;;26.90;99.90;;;;;;4977752;28;19922;-43
2023/07/28 12:51:16;;;;;;;;;;;27.20;99.90;;;;;;4994853;28;20297;-43
2023/07/28 12:53:43;;;;;;;;;;;27.40;99.90;;;;;;4978332;28;20162;-44
2023/07/28 12:56:11;;;;;;;;;;;27.50;99.90;;;;;;4977480;28;19921;-43
2023/07/28 12:58:38;;;;;;;;;;;27.50;99.90;;;;;;4977631;28;19994;-43
2023/07/28 13:01:05;;;;;;;;;;;27.40;99.90;;;;;;4992444;28;19922;-43
2023/07/28 13:03:31;;;;;;;;;;;27.40;99.90;;;;;;4977267;28;19960;-43
2023/07/28 13:05:58;;;;;;;;;;;27.40;99.90;;;;;;4977482;28;19922;-43
2023/07/28 13:08:25;;;;;;;;;;;27.30;99.90;;;;;;4994171;28;20069;-43
2023/07/28 13:10:51;;;;;;;;;;;27.30;99.90;;;;;;4992844;28;20386;-43
2023/07/28 13:13:19;;;;;;;;;;;27.30;99.90;;;;;;4993404;28;20275;-43
2023/07/28 13:15:46;;;;;;;;;;;27.20;99.90;;;;;;4973181;28;20386;-43
2023/07/28 13:18:13;;;;;;;;;;;27.30;99.90;;;;;;4970215;28;20004;-43
2023/07/28 13:20:39;;;;;;;;;;;27.30;99.90;;;;;;4989593;28;19976;-43
2023/07/28 13:23:06;;;;;;;;;;;27.50;99.90;;;;;;4971356;28;19940;-42
2023/07/28 13:25:33;;;;;;;;;;;27.50;99.90;;;;;;4987609;28;20374;-43
2023/07/28 13:27:59;;;;;;;;;;;27.50;99.90;;;;;;4991066;28;19921;-43
2023/07/28 13:30:28;;;;;;;;;;;27.50;99.90;;;;;;4993281;28;20358;-43
2023/07/28 13:32:54;;;;;;;;;;;27.70;99.90;;;;;;4975455;28;19929;-42
2023/07/28 13:35:21;;;;;;;;;;;27.80;99.90;;;;;;4976735;28;20270;-43
2023/07/28 13:37:48;;;;;;;;;;;27.80;99.90;;;;;;4977670;28;19925;-43
2023/07/28 13:40:14;;;;;;;;;;;27.80;99.90;;;;;;4994126;28;20374;-43
2023/07/28 13:42:41;;;;;;;;;;;27.80;99.90;;;;;;4993725;28;19926;-43
2023/07/28 13:45:09;;;;;;;;;;;27.90;99.90;;;;;;4992570;28;20289;-43
2023/07/28 13:47:37;;;;;;;;;;;27.90;99.90;;;;;;4993394;28;19929;-43
2023/07/28 13:50:04;;;;;;;;;;;28.00;99.90;;;;;;4993593;28;20353;-43
2023/07/28 13:52:30;;;;;;;;;;;28.10;99.90;;;;;;4975500;28;19922;-43
2023/07/28 13:54:57;;;;;;;;;;;28.30;99.90;;;;;;4988614;28;19929;-43
2023/07/28 13:57:24;;;;;;;;;;;28.40;99.90;;;;;;4993256;28;19973;-43
2023/07/28 13:59:50;;;;;;;;;;;28.40;99.90;;;;;;4993350;28;19922;-43
2023/07/28 14:02:17;;;;;;;;;;;28.40;99.90;;;;;;4976201;28;20429;-43
2023/07/28 14:04:45;;;;;;;;;;;28.50;99.90;;;;;;4994608;28;20008;-43
2023/07/28 14:07:12;;;;;;;;;;;28.60;99.90;;;;;;4992880;28;20294;-43
2023/07/28 14:09:38;;;;;;;;;;;28.70;99.90;;;;;;4993380;28;19922;-43
2023/07/28 14:12:06;;;;;;;;;;;28.70;99.90;;;;;;4976617;28;19921;-43
2023/07/28 14:14:32;;;;;;;;;;;28.80;99.90;;;;;;4993154;28;19936;-43